Huvudsida
METAR-TAF:

METAR-TAF

Flygplatser :

Payerne, Schweiz

latitud: 46-49N, longitud: 006-57E, höjd: 490 m

Aktuellt väderrapport

Denna rapport gjordes för 22 minuter sedan, klockan 23:20 UTC
Stilla vind
Temperatur 10°C
Fuktighet 93%
Tryck 1018 hPa
Sikt 10 km eller mer

METAR: LSMP 132320Z AUTO 00000KT 9999NDV NCD 10/09 Q1018 RMK

Tid: 01:42 (23:42 UTC)


TAF: saknas

Aktuella väderrapporter och prognoser från 4000 flygplatser (METAR- och TAF-rapporter).

De tillgängliga stationerna syns som gula och röda prickar på kartan.

För musen över prickarna för att se namnen på stationerna.

Klicka sedan för att få väderrapporter och prognoser.

För att ändra kartan: Klicka på de gröna knapparna med ett svart kors på för att zooma in; den gröna knappen med ett streck på för att zooma ut; eller på de gröna pilarna för angränsande kartor.


METAR-TAF: